Terminal Aerodrome Forecast
Issued by NWS

Home | Current Version | Previous Version | Text Only | Print | Product List | Glossary On
Versions: 1 2 3 4 5 6 7 8 9 10 11 12 13 14 15
082
FTUS44 KLIX 261725
TAFGPT
TAF
KGPT 261725Z 2618/2718 VRB04KT P6SM VCTS SCT025CB BKN090
     FM262000 14007KT P6SM SCT030 BKN090
      TEMPO 2620/2624 4SM TSRA BKN030CB
     FM270000 11005KT P6SM VCTS SCT030CB BKN100
     FM270200 11006KT P6SM SCT020 BKN100
     FM271200 05009KT P6SM VCSH SCT035 BKN090=

USA.gov is the U.S. government's official web portal to all federal, state and local government web resources and services.